Latest Weather Observations for Kalgoorlie-Boulder

IDW60801

Issued at 10:35 pm WST Wednesday 26 November 2014 (issued every 30 minutes, with the page automatically refreshed every 10 minutes)

About weather observations | Map of weather stations | Latest weather observations for WA | Other Formats
Station Details ID: 012038 Name: KALGOORLIE-BOULDER AIRPORT Lat: -30.78 Lon: 121.45 Height: 365.3 m
Data from the previous 72 hours. | See also: Recent months at Kalgoorlie-Boulder
Date/Time
WST
Temp
°C
App
Temp
°C
Dew
Point
Rel
Hum
%
Delta-T
°C
Wind Press
QNH
hPa
Press
MSL
hPa
Rain
since 9 am
mm
Dir
 
Spd
km/h
Gust
km/h
Spd
kts
Gust
kts
26/10:30pm 25.4 19.4 1.3 20 11.6 E 22 33 12 18 1014.5 - 0.0
26/10:00pm 25.5 19.9 1.1 20 11.7 E 20 28 11 15 1014.7 - 0.0
26/09:30pm 25.3 20.3 1.1 20 11.6 E 17 24 9 13 1014.8 - 0.0
26/09:00pm 25.5 20.6 1.9 21 11.5 E 17 22 9 12 1015.1 1013.6 0.0
26/08:30pm 26.3 21.4 1.7 20 12.0 E 17 26 9 14 1015.1 - 0.0
26/08:00pm 26.4 22.3 2.3 21 11.9 E 13 20 7 11 1015.1 - 0.0
26/07:30pm 26.3 21.4 2.1 20 11.9 E 17 20 9 11 1014.5 - 0.0
26/07:00pm 27.0 21.6 1.0 18 12.6 E 19 28 10 15 1014.1 - 0.0
26/06:30pm 27.5 21.9 1.3 18 12.8 E 20 32 11 17 1014.1 - 0.0
26/06:00pm 28.0 21.9 0.5 17 13.3 E 22 33 12 18 1014.0 1012.5 0.0
26/05:30pm 28.2 21.4 0.5 16 13.4 E 26 35 14 19 1014.3 - 0.0
26/05:00pm 28.7 22.7 0.9 16 13.6 ENE 22 32 12 17 1014.4 - 0.0
26/04:30pm 28.3 22.3 0.8 17 13.4 ENE 22 32 12 17 1014.9 - 0.0
26/04:00pm 28.4 21.9 0.6 16 13.5 ENE 24 32 13 17 1015.1 - 0.0
26/03:30pm 28.9 22.0 0.1 15 13.9 ENE 26 37 14 20 1015.3 - 0.0
26/03:00pm 29.7 23.9 0.0 14 14.4 ENE 20 33 11 18 1015.5 1014.0 0.0
26/02:30pm 29.9 23.8 0.5 15 14.4 ENE 22 33 12 18 1015.6 - 0.0
26/02:00pm 28.7 22.2 0.5 16 13.7 ENE 24 35 13 19 1015.8 - 0.0
26/01:30pm 29.4 23.0 0.9 16 14.0 ENE 24 43 13 23 1015.8 - 0.0
26/01:00pm 28.9 22.8 0.1 15 13.9 ENE 22 37 12 20 1016.1 - 0.0
26/12:30pm 28.0 21.5 0.0 16 13.4 E 24 35 13 19 1016.7 - 0.0
26/12:00pm 27.4 20.7 -1.0 15 13.3 ENE 24 32 13 17 1017.0 1015.6 0.0
26/11:30am 26.7 20.4 1.8 20 12.2 E 24 35 13 19 1017.6 - 0.0
26/11:00am 26.5 20.7 2.1 20 12.0 ENE 22 30 12 16 1017.9 - 0.0
26/10:30am 26.4 20.7 2.9 22 11.7 ENE 22 30 12 16 1018.4 - 0.0
26/10:00am 25.0 19.4 3.6 25 10.7 ENE 22 32 12 17 1018.8 - 0.0
26/09:30am 24.0 18.5 4.0 27 10.0 ENE 22 28 12 15 1019.2 - 0.0
26/09:00am 23.5 18.8 5.3 30 9.3 ENE 19 30 10 16 1019.6 1018.2 0.0
26/08:30am 22.6 17.7 5.2 32 8.8 ENE 20 32 11 17 1019.6 - 0.0
26/08:00am 21.9 16.7 5.5 34 8.3 E 22 30 12 16 1019.9 - 0.0
26/07:30am 20.4 15.8 6.3 40 7.2 E 20 28 11 15 1019.9 - 0.0
26/07:00am 18.9 14.3 6.7 45 6.2 E 20 30 11 16 1019.9 - 0.0
26/06:30am 18.5 13.6 6.9 46 5.9 E 22 32 12 17 1019.5 - 0.0
26/06:00am 17.8 13.3 7.0 49 5.5 E 20 28 11 15 1019.5 1018.1 0.0
26/05:30am 17.4 12.6 7.2 51 5.2 ENE 22 33 12 18 1019.8 - 0.0
26/05:00am 17.0 12.5 6.9 51 5.1 E 20 32 11 17 1019.6 - 0.0
26/04:30am 17.0 12.5 6.9 51 5.1 E 20 28 11 15 1019.4 - 0.0
26/04:00am 17.2 12.7 6.9 50 5.2 ESE 20 28 11 15 1019.1 - 0.0
26/03:30am 17.7 13.1 6.3 47 5.7 ESE 20 26 11 14 1018.7 - 0.0
26/03:00am 18.3 13.5 5.6 43 6.3 ESE 20 26 11 14 1018.4 1016.9 0.0
26/02:30am 18.9 13.1 4.3 38 7.1 E 24 32 13 17 1018.1 - 0.0
26/02:00am 19.1 13.8 2.8 34 7.7 E 20 32 11 17 1018.0 - 0.0
26/01:30am 20.3 14.1 2.3 30 8.5 ESE 24 32 13 17 1018.0 - 0.0
26/01:00am 21.8 15.5 1.6 26 9.5 E 24 33 13 18 1018.1 - 0.0
26/12:30am 21.8 16.4 2.3 27 9.3 E 20 30 11 16 1018.0 - 0.0
26/12:00am 22.2 16.3 1.7 26 9.7 E 22 28 12 15 1018.1 1016.6 0.0
 
Date/Time
WST
Temp
°C
App
Temp
°C
Dew
Point
Rel
Hum
%
Delta-T
°C
Wind Press
QNH
hPa
Press
MSL
hPa
Rain
since 9 am
mm
Dir
 
Spd
km/h
Gust
km/h
Spd
kts
Gust
kts
25/11:30pm 22.6 17.0 1.4 24 10.0 E 20 28 11 15 1018.0 - 0.0
25/11:00pm 22.9 16.9 0.9 23 10.3 E 22 33 12 18 1017.8 - 0.0
25/10:30pm 23.1 17.5 1.0 23 10.4 E 20 28 11 15 1018.2 - 0.0
25/10:00pm 23.3 17.8 0.6 22 10.6 ESE 19 28 10 15 1018.2 - 0.0
25/09:30pm 22.4 17.3 1.0 24 10.0 ESE 17 19 9 10 1018.1 - 0.0
25/09:00pm 23.3 18.9 0.6 22 10.6 SE 13 15 7 8 1017.9 1016.4 0.0
25/08:30pm 23.9 18.7 0.4 21 11.0 ESE 17 20 9 11 1017.6 - 0.0
25/08:00pm 24.1 19.3 0.0 20 11.2 ESE 15 19 8 10 1017.0 - 0.0
25/07:30pm 24.8 19.9 -0.4 19 11.7 ESE 15 17 8 9 1016.8 - 0.0
25/07:00pm 26.8 21.0 -1.2 16 13.0 E 19 28 10 15 1016.8 - 0.0
25/06:30pm 27.6 21.6 -1.4 15 13.5 E 20 24 11 13 1016.9 - 0.0
25/06:00pm 28.4 22.7 -0.7 15 13.8 E 19 26 10 14 1016.9 1015.4 0.0
25/05:30pm 29.3 23.9 -1.1 14 14.4 ESE 17 33 9 18 1016.7 - 0.0
25/05:00pm 29.5 23.8 -0.6 14 14.4 ESE 19 26 10 14 1016.7 - 0.0
25/04:30pm 29.3 24.8 -0.2 15 14.2 E 13 19 7 10 1016.9 - 0.0
25/04:00pm 29.6 25.7 0.9 15 14.1 E 11 19 6 10 1017.1 - 0.0
25/03:30pm 29.2 24.9 0.8 16 13.9 E 13 17 7 9 1017.4 - 0.0
25/03:00pm 29.4 24.2 0.4 15 14.1 NE 17 20 9 11 1017.7 1016.2 0.0
25/02:30pm 28.6 24.7 1.0 17 13.5 NE 11 20 6 11 1017.9 - 0.0
25/02:00pm 28.3 22.7 1.1 17 13.3 NE 20 28 11 15 1018.3 - 0.0
25/01:30pm 27.9 22.8 0.9 17 13.1 ESE 17 24 9 13 1018.6 - 0.0
25/01:00pm 28.5 22.9 1.1 17 13.4 ENE 20 32 11 17 1019.1 - 0.0
25/12:30pm 28.7 23.3 2.3 18 13.2 ENE 20 32 11 17 1019.6 - 0.0
25/12:00pm 27.1 22.7 2.6 20 12.2 E 15 26 8 14 1020.2 1018.8 0.0
25/11:30am 26.1 21.4 3.3 23 11.4 E 17 28 9 15 1020.7 - 0.0
25/11:00am 26.0 20.8 3.5 23 11.3 E 20 30 11 16 1021.3 - 0.0
25/10:30am 24.2 19.7 4.0 27 10.1 E 17 26 9 14 1021.7 - 0.0
25/10:00am 22.8 18.3 4.4 30 9.2 ESE 17 22 9 12 1022.1 - 0.0
25/09:30am 22.1 18.0 4.4 31 8.8 E 15 24 8 13 1022.0 - 0.0
25/09:00am 20.7 16.7 4.8 35 7.9 ENE 15 22 8 12 1022.3 1020.9 0.0
25/08:30am 20.1 16.1 4.7 36 7.6 E 15 20 8 11 1022.5 - 0.0
25/08:00am 18.4 13.6 4.9 41 6.6 E 19 26 10 14 1022.4 - 0.0
25/07:30am 17.2 12.2 4.8 44 6.0 ENE 20 28 11 15 1022.5 - 0.0
25/07:00am 16.5 11.5 4.6 45 5.7 ENE 20 30 11 16 1022.1 - 0.0
25/06:30am 15.8 11.4 4.7 47 5.3 ENE 17 22 9 12 1021.9 - 0.0
25/06:00am 14.8 9.8 4.4 49 4.9 E 20 30 11 16 1021.9 1020.5 0.0
25/05:30am 14.0 9.0 3.8 50 4.7 ESE 19 22 10 12 1021.7 - 0.0
25/05:00am 13.1 8.9 4.0 54 4.2 ESE 15 19 8 10 1021.4 - 0.0
25/04:30am 13.4 8.8 3.9 52 4.4 E 17 24 9 13 1021.0 - 0.0
25/04:00am 13.8 8.7 3.9 51 4.6 ESE 20 26 11 14 1020.6 - 0.0
25/03:30am 14.5 8.6 3.7 48 5.0 E 24 33 13 18 1020.3 - 0.0
25/03:00am 15.0 9.1 3.9 47 5.2 ESE 24 32 13 17 1020.1 1018.7 0.0
25/02:30am 15.5 9.6 4.0 46 5.4 ESE 24 30 13 16 1020.1 - 0.0
25/02:00am 16.3 10.4 3.8 43 5.9 ESE 24 28 13 15 1019.9 - 0.0
25/01:30am 16.3 10.8 1.7 37 6.6 ESE 20 24 11 13 1019.8 - 0.0
25/01:00am 16.8 11.8 1.5 35 6.9 ESE 17 20 9 11 1020.0 - 0.0
25/12:30am 16.7 12.4 1.3 35 6.9 ESE 13 15 7 8 1020.1 - 0.0
25/12:00am 18.0 13.6 0.5 30 7.8 ESE 13 19 7 10 1020.2 1018.8 0.0
 
Date/Time
WST
Temp
°C
App
Temp
°C
Dew
Point
Rel
Hum
%
Delta-T
°C
Wind Press
QNH
hPa
Press
MSL
hPa
Rain
since 9 am
mm
Dir
 
Spd
km/h
Gust
km/h
Spd
kts
Gust
kts
24/11:30pm 18.8 14.4 0.2 28 8.3 SE 13 19 7 10 1020.6 - 0.0
24/11:00pm 18.7 14.7 0.7 30 8.1 ESE 11 17 6 9 1020.7 - 0.0
24/10:30pm 18.6 15.1 1.3 31 7.9 SSE 9 13 5 7 1020.7 - 0.0
24/10:00pm 18.4 15.4 2.2 34 7.5 SSE 7 9 4 5 1020.7 - 0.0
24/09:30pm 19.1 15.1 0.8 29 8.3 S 11 13 6 7 1020.6 - 0.0
24/09:00pm 19.6 15.6 0.3 27 8.7 S 11 13 6 7 1020.5 1019.0 0.0
24/08:30pm 21.1 17.0 -0.1 24 9.6 SSE 11 15 6 8 1020.1 - 0.0
24/08:00pm 21.7 17.5 -0.8 22 10.1 SSE 11 15 6 8 1019.9 - 0.0
24/07:30pm 22.5 17.9 -1.1 20 10.6 SE 13 15 7 8 1019.5 - 0.0
24/07:00pm 23.5 17.6 -2.2 18 11.4 ESE 19 22 10 12 1019.3 - 0.0
24/06:30pm 24.4 18.5 -2.3 17 11.9 ESE 19 24 10 13 1019.0 - 0.0
24/06:00pm 25.2 19.4 -1.6 17 12.2 SE 19 24 10 13 1018.6 1017.1 0.0
24/05:30pm 25.8 19.9 -1.1 17 12.4 ESE 20 32 11 17 1018.3 - 0.0
24/05:00pm 26.2 20.9 -0.5 17 12.5 SSE 17 22 9 12 1018.0 - 0.0
24/04:30pm 26.4 20.3 0.3 18 12.4 ESE 22 32 12 17 1018.1 - 0.0
24/04:00pm 26.1 21.8 1.2 19 12.0 E 13 20 7 11 1018.1 - 0.0
24/03:30pm 26.3 21.6 0.9 19 12.2 SSE 15 32 8 17 1018.3 - 0.0
24/03:00pm 25.5 21.6 1.4 20 11.6 SE 11 19 6 10 1018.5 1017.0 0.0
24/02:30pm 26.0 22.8 3.2 23 11.4 S 9 19 5 10 1018.8 - 0.0
24/02:00pm 25.2 20.2 1.5 21 11.4 SE 17 24 9 13 1019.2 - 0.0
24/01:30pm 24.4 20.8 2.8 24 10.6 NE 11 19 6 10 1019.5 - 0.0
24/01:00pm 24.1 20.5 3.2 25 10.3 E 11 20 6 11 1019.9 - 0.0
24/12:30pm 23.1 17.9 2.7 26 9.9 ESE 19 24 10 13 1020.3 - 0.0
24/12:00pm 22.5 17.4 3.2 28 9.4 ESE 19 28 10 15 1020.8 1019.3 0.0
24/11:30am 21.8 18.0 3.9 31 8.8 ENE 13 17 7 9 1021.3 - 0.0
24/11:00am 20.8 16.6 4.0 33 8.2 NE 15 24 8 13 1021.6 - 0.0
24/10:30am 19.6 16.7 4.5 37 7.4 ESE 9 20 5 11 1022.1 - 0.0
24/10:00am 19.0 15.3 4.4 38 7.1 ESE 13 28 7 15 1022.4 - 0.0
24/09:30am 18.1 14.1 4.7 41 6.5 ENE 15 20 8 11 1022.7 - 0.0
24/09:00am 18.1 13.7 5.0 42 6.4 E 17 28 9 15 1023.0 1021.6 0.0
24/08:30am 16.6 11.8 4.5 44 5.8 E 19 28 10 15 1023.0 - 0.0
24/08:00am 15.9 10.6 4.8 47 5.3 ESE 22 32 12 17 1022.9 - 0.0
24/07:30am 15.5 10.1 4.6 48 5.2 E 22 32 12 17 1022.8 - 0.0
24/07:00am 14.9 8.8 4.8 51 4.8 ESE 26 33 14 18 1022.7 - 0.0
24/06:30am 13.5 7.0 4.8 55 4.1 ESE 28 37 15 20 1022.4 - 0.0
24/06:00am 13.0 7.8 5.7 61 3.5 ESE 22 32 12 17 1022.1 1020.7 0.0
24/05:30am 12.3 8.1 5.8 64 3.1 ESE 17 24 9 13 1021.8 - 0.0
24/05:00am 11.5 7.3 5.6 67 2.8 SE 17 22 9 12 1021.5 - 0.0
24/04:30am 11.6 6.9 5.2 65 3.0 SE 19 24 10 13 1021.1 - 0.0
24/04:00am 11.8 7.0 4.9 62 3.2 SE 19 26 10 14 1020.8 - 0.0
24/03:30am 12.2 6.5 4.7 60 3.5 SE 24 33 13 18 1020.5 - 0.0
24/03:00am 12.4 7.4 4.4 58 3.7 SE 20 28 11 15 1020.3 1018.9 0.0
24/02:30am 12.7 7.4 4.8 58 3.7 SE 22 32 12 17 1020.0 - 0.0
24/02:00am 13.1 7.0 4.8 57 3.9 SE 26 37 14 20 1019.7 - 0.0
24/01:30am 13.4 8.0 6.2 61 3.5 SE 24 35 13 19 1019.6 - 0.0
24/01:00am 13.7 8.3 6.5 62 3.5 SSE 24 33 13 18 1019.4 - 0.0
24/12:30am 14.2 8.5 6.7 60 3.7 SSE 26 39 14 21 1019.3 - 0.0
24/12:05am 14.7 8.6 6.8 59 3.9 SSE 28 46 15 25 1019.0 - 0.0
24/12:00am 14.9 8.8 6.6 57 4.1 SE 28 41 15 22 1019.1 1017.6 0.0
 
Date/Time
WST
Temp
°C
App
Temp
°C
Dew
Point
Rel
Hum
%
Delta-T
°C
Wind Press
QNH
hPa
Press
MSL
hPa
Rain
since 9 am
mm
Dir
 
Spd
km/h
Gust
km/h
Spd
kts
Gust
kts
23/11:30pm 15.5 9.5 7.1 57 4.2 SSE 28 44 15 24 1018.9 - 0.0
23/11:00pm 16.4 10.8 7.1 54 4.7 SSE 26 39 14 21 1018.5 - 0.0

Other Formats:

Comma delimited format used in spreadsheet applications
http://www.bom.gov.au/fwo/IDW60801/IDW60801.94637.axf

JavaScript Object Notation format (JSON) in row-major order
http://www.bom.gov.au/fwo/IDW60801/IDW60801.94637.json